メインページ
METAR-TAF:

METAR-TAF

空港 :

ランカウイ国際空港

ランカウイ島, マレーシア

緯度: 06-20N, 経度: 099-44E, 海抜: 8m

現時点の気象観測

当レポートは48分前の13:00(UTC)に作成
無風
気温 29°C
湿度 89%
気圧 1010 hPa
視程: 9000m
高度2600ftの雲はほとんどない

METAR: WMKL 201300Z 00000KT 9000 FEW026 29/27 Q1010

時間: 21:48 (13:48 UTC)

予報

当レポートは2時間48分前の11:00(UTC)に作成
予報は20日の 12時(UTC)から 21日の 12時(UTC)まで有効
変向風 3kt
視程10km以上
高度2600ftの雲はほとんどない
21日の 04時(UTC)から 21日の 06時(UTC)まで徐々に
の風 6kt
高度2000ftの雲はほとんどない

TAF: WMKL 201100Z 2012/2112 VRB03KT 9999 FEW026 BECMG 2104/2106 18006KT FEW020

4,000以上の空港の気象観測と天気予報(METAR報とTAF報)

利用可能な観測所は地図上に黄色い丸と赤い丸で示す。

丸の上にカーソルを重ねると観測所名を参照できる。

次にクリックすると気象観測と天気予報を参照できる。

マップの切り替え:黒色「×」印の緑ボタンをクリックして拡大、「-」印の緑ボタンをクリックして縮小、緑色の三角印をクリックして隣りの地図に切り替え


METAR-TAF: